createdAt,value
2017-11-15T00:02:03.326Z,99.90
2017-11-15T00:04:30.954Z,99.90
2017-11-15T00:06:58.532Z,99.90
2017-11-15T00:09:26.126Z,99.90
2017-11-15T00:11:53.749Z,99.90
2017-11-15T00:14:21.422Z,99.90
2017-11-15T00:16:49.095Z,99.90
2017-11-15T00:19:16.712Z,99.90
2017-11-15T00:21:44.345Z,99.90
2017-11-15T00:24:11.994Z,99.90
2017-11-15T00:26:39.626Z,99.90
2017-11-15T00:29:07.262Z,99.90
2017-11-15T00:31:35.661Z,99.90
2017-11-15T00:34:03.398Z,99.90
2017-11-15T00:36:31.021Z,99.90
2017-11-15T00:38:58.651Z,99.90
2017-11-15T00:41:26.221Z,99.90
2017-11-15T00:43:53.844Z,99.90
2017-11-15T00:46:21.450Z,99.90
2017-11-15T00:48:49.109Z,99.90
2017-11-15T00:51:16.709Z,99.90
2017-11-15T00:53:44.367Z,99.90
2017-11-15T00:56:11.999Z,99.90
2017-11-15T00:58:39.682Z,99.90
2017-11-15T01:01:07.305Z,99.90
2017-11-15T01:03:34.962Z,99.90
2017-11-15T01:06:02.610Z,99.90
2017-11-15T01:08:30.198Z,99.90
2017-11-15T01:10:58.127Z,99.90
2017-11-15T01:13:25.719Z,99.90
2017-11-15T01:15:53.381Z,99.90
2017-11-15T01:18:21.004Z,99.90
2017-11-15T01:20:48.646Z,99.90
2017-11-15T01:23:17.171Z,99.90
2017-11-15T01:25:44.809Z,99.90
2017-11-15T01:28:13.208Z,99.90
2017-11-15T01:30:40.946Z,99.90
2017-11-15T01:33:09.314Z,99.90
2017-11-15T01:35:36.952Z,99.90
2017-11-15T01:38:04.701Z,99.90
2017-11-15T01:40:32.383Z,99.90
2017-11-15T01:43:00.036Z,99.90
2017-11-15T01:45:27.660Z,99.90
2017-11-15T01:47:55.391Z,99.90
2017-11-15T01:50:23.011Z,99.90
2017-11-15T01:52:50.629Z,99.90
2017-11-15T01:55:18.188Z,99.90
2017-11-15T01:57:45.812Z,99.90
2017-11-15T02:00:13.500Z,99.90
2017-11-15T02:02:41.088Z,99.90
2017-11-15T02:05:08.716Z,99.90
2017-11-15T02:07:37.110Z,99.90
2017-11-15T02:10:04.786Z,99.90
2017-11-15T02:12:32.406Z,99.90
2017-11-15T02:15:00.012Z,99.90
2017-11-15T02:17:27.615Z,99.90
2017-11-15T02:19:55.276Z,99.90
2017-11-15T02:22:22.876Z,99.90
2017-11-15T02:24:50.558Z,99.90
2017-11-15T02:27:18.259Z,99.90
2017-11-15T02:29:45.878Z,99.90
2017-11-15T02:32:13.478Z,99.90
2017-11-15T02:34:41.134Z,99.90
2017-11-15T02:37:08.763Z,99.90
2017-11-15T02:39:36.490Z,99.90
2017-11-15T02:42:04.217Z,99.90
2017-11-15T02:44:31.913Z,99.90
2017-11-15T02:46:59.652Z,99.90
2017-11-15T02:49:27.301Z,99.90
2017-11-15T02:51:54.924Z,99.90
2017-11-15T02:54:23.338Z,99.90
2017-11-15T02:56:50.920Z,99.90
2017-11-15T02:59:18.529Z,99.90
2017-11-15T03:01:46.926Z,99.90
2017-11-15T03:04:14.551Z,99.90
2017-11-15T03:06:42.170Z,99.90
2017-11-15T03:09:09.803Z,99.90
2017-11-15T03:11:37.434Z,99.90
2017-11-15T03:14:05.048Z,99.90
2017-11-15T03:16:32.696Z,99.90
2017-11-15T03:19:00.282Z,99.90
2017-11-15T03:21:28.043Z,99.90
2017-11-15T03:23:56.447Z,99.90
2017-11-15T03:26:24.883Z,99.90
2017-11-15T03:28:52.568Z,99.90
2017-11-15T03:31:20.317Z,99.90
2017-11-15T03:33:47.963Z,99.90
2017-11-15T03:36:15.619Z,99.90
2017-11-15T03:38:43.282Z,99.90
2017-11-15T03:41:11.703Z,99.90
2017-11-15T03:43:39.449Z,99.90
2017-11-15T03:46:07.143Z,99.90
2017-11-15T03:48:34.779Z,99.90
2017-11-15T03:51:02.437Z,99.90
2017-11-15T03:53:30.895Z,99.90
2017-11-15T03:55:58.675Z,99.90
2017-11-15T03:58:26.295Z,99.90
2017-11-15T04:00:54.684Z,99.90
2017-11-15T04:03:22.262Z,99.90
2017-11-15T04:05:49.867Z,99.90
2017-11-15T04:08:17.452Z,99.90
2017-11-15T04:10:45.121Z,99.90
2017-11-15T04:13:12.734Z,99.90
2017-11-15T04:15:40.360Z,99.90
2017-11-15T04:18:08.039Z,99.90
2017-11-15T04:20:35.681Z,99.90
2017-11-15T04:23:03.318Z,99.90
2017-11-15T04:25:30.910Z,99.90
2017-11-15T04:27:58.541Z,99.90
2017-11-15T04:30:26.946Z,99.90
2017-11-15T04:32:54.559Z,99.90
2017-11-15T04:35:22.164Z,99.90
2017-11-15T04:37:49.803Z,99.90
2017-11-15T04:40:18.197Z,99.90
2017-11-15T04:42:45.848Z,99.90
2017-11-15T04:45:14.343Z,99.90
2017-11-15T04:47:42.029Z,99.90
2017-11-15T04:50:09.694Z,99.90
2017-11-15T04:52:37.351Z,99.90
2017-11-15T04:55:04.974Z,99.90
2017-11-15T04:57:33.358Z,99.90
2017-11-15T05:00:01.804Z,99.90
2017-11-15T05:02:29.391Z,99.90
2017-11-15T05:04:56.980Z,99.90
2017-11-15T05:07:24.585Z,99.90
2017-11-15T05:09:52.237Z,99.90
2017-11-15T05:12:19.825Z,99.90
2017-11-15T05:14:47.456Z,99.90
2017-11-15T05:17:15.209Z,99.90
2017-11-15T05:19:42.872Z,99.90
2017-11-15T05:22:10.543Z,99.90
2017-11-15T05:24:38.156Z,99.90
2017-11-15T05:27:05.781Z,99.90
2017-11-15T05:29:33.403Z,99.90
2017-11-15T05:32:00.988Z,99.90
2017-11-15T05:34:28.640Z,99.90
2017-11-15T05:36:56.312Z,99.90
2017-11-15T05:39:23.952Z,99.90
2017-11-15T05:41:51.571Z,99.90
2017-11-15T05:44:19.997Z,99.90
2017-11-15T05:46:47.651Z,99.90
2017-11-15T05:49:15.458Z,99.90
2017-11-15T05:51:43.124Z,99.90
2017-11-15T05:54:10.736Z,99.90
2017-11-15T05:56:38.351Z,99.90
2017-11-15T05:59:06.039Z,99.90
2017-11-15T06:01:34.381Z,99.90
2017-11-15T06:04:02.255Z,99.90
2017-11-15T06:06:29.902Z,99.90
2017-11-15T06:08:57.547Z,99.90
2017-11-15T06:11:25.141Z,99.90
2017-11-15T06:13:52.920Z,99.90
2017-11-15T06:16:20.580Z,99.90
2017-11-15T06:18:48.227Z,99.90
2017-11-15T06:21:15.829Z,99.90
2017-11-15T06:23:44.251Z,99.90
2017-11-15T06:26:11.949Z,99.90
2017-11-15T06:28:39.594Z,99.90
2017-11-15T06:31:07.119Z,99.90
2017-11-15T06:33:34.809Z,99.90
2017-11-15T06:36:02.398Z,99.90
2017-11-15T06:38:30.808Z,99.90
2017-11-15T06:40:59.777Z,99.90
2017-11-15T06:43:27.498Z,99.90
2017-11-15T06:45:55.147Z,99.90
2017-11-15T06:48:22.784Z,99.90
2017-11-15T06:50:50.478Z,99.90
2017-11-15T06:53:18.182Z,99.90
2017-11-15T06:55:51.344Z,99.90
2017-11-15T06:58:19.804Z,99.90
2017-11-15T07:00:47.414Z,99.90
2017-11-15T07:03:15.065Z,99.90
2017-11-15T07:05:42.891Z,99.90
2017-11-15T07:08:10.470Z,99.90
2017-11-15T07:10:38.056Z,99.90
2017-11-15T07:13:05.704Z,99.90
2017-11-15T07:15:34.120Z,99.90
2017-11-15T07:18:01.774Z,99.90
2017-11-15T07:20:29.392Z,99.90
2017-11-15T07:22:57.054Z,99.90
2017-11-15T07:25:25.426Z,99.90
2017-11-15T07:27:53.069Z,99.90
2017-11-15T07:30:20.770Z,99.90
2017-11-15T07:32:49.156Z,99.90
2017-11-15T07:35:17.548Z,99.90
2017-11-15T07:37:45.959Z,99.90
2017-11-15T07:40:13.541Z,99.90
2017-11-15T07:42:41.172Z,99.90
2017-11-15T07:45:08.768Z,99.90
2017-11-15T07:47:36.523Z,99.90
2017-11-15T07:50:04.210Z,99.90
2017-11-15T07:52:31.811Z,99.90
2017-11-15T07:54:59.478Z,99.90
2017-11-15T07:57:27.078Z,99.90
2017-11-15T07:59:54.681Z,99.90
2017-11-15T08:02:22.316Z,99.90
2017-11-15T08:04:49.930Z,99.90
2017-11-15T08:07:17.556Z,99.90
2017-11-15T08:09:46.039Z,99.90
2017-11-15T08:12:13.629Z,99.90
2017-11-15T08:14:41.264Z,99.90
2017-11-15T08:17:08.871Z,99.90
2017-11-15T08:19:36.514Z,99.90
2017-11-15T08:22:04.149Z,99.90
2017-11-15T08:24:31.767Z,99.90
2017-11-15T08:26:59.373Z,99.90
2017-11-15T08:29:26.998Z,99.90
2017-11-15T08:31:54.654Z,99.90
2017-11-15T08:34:22.319Z,99.90
2017-11-15T08:36:49.965Z,99.90
2017-11-15T08:39:17.570Z,99.90
2017-11-15T08:41:45.164Z,99.90
2017-11-15T08:44:12.800Z,99.90
2017-11-15T08:46:41.194Z,99.90
2017-11-15T08:49:09.569Z,99.90
2017-11-15T08:51:38.055Z,99.90
2017-11-15T08:54:05.677Z,99.90
2017-11-15T08:56:33.352Z,99.90
2017-11-15T08:59:00.963Z,99.90
2017-11-15T09:01:28.854Z,99.90
2017-11-15T09:03:56.462Z,99.90
2017-11-15T09:06:24.833Z,99.90
2017-11-15T09:08:53.287Z,99.90
2017-11-15T09:11:20.897Z,99.90
2017-11-15T09:13:48.534Z,99.90
2017-11-15T09:16:16.171Z,99.90
2017-11-15T09:18:43.748Z,99.90
2017-11-15T09:21:11.356Z,99.90
2017-11-15T09:23:38.978Z,99.90
2017-11-15T09:26:07.323Z,99.90
2017-11-15T09:28:35.124Z,99.90
2017-11-15T09:31:03.482Z,99.90
2017-11-15T09:33:31.159Z,99.90
2017-11-15T09:35:59.551Z,99.90
2017-11-15T09:38:27.933Z,99.90
2017-11-15T09:40:56.337Z,99.90
2017-11-15T09:43:23.972Z,99.90
2017-11-15T09:45:52.504Z,99.90
2017-11-15T09:48:20.201Z,99.90
2017-11-15T09:50:47.856Z,99.90
2017-11-15T09:53:15.496Z,99.90
2017-11-15T09:55:43.102Z,99.90
2017-11-15T09:58:11.655Z,99.90
2017-11-15T10:00:39.230Z,99.90
2017-11-15T10:03:06.890Z,99.90
2017-11-15T10:05:34.889Z,99.90
2017-11-15T10:08:02.506Z,99.90
2017-11-15T10:10:30.217Z,99.80
2017-11-15T10:12:57.850Z,99.70
2017-11-15T10:15:26.265Z,99.90
2017-11-15T10:17:53.905Z,99.90
2017-11-15T10:20:21.517Z,99.90
2017-11-15T10:22:50.018Z,99.90
2017-11-15T10:25:17.792Z,99.90
2017-11-15T10:27:45.475Z,99.90
2017-11-15T10:30:13.133Z,99.90
2017-11-15T10:32:40.769Z,99.90
2017-11-15T10:35:08.420Z,99.90
2017-11-15T10:37:36.034Z,99.90
2017-11-15T10:40:03.702Z,99.90
2017-11-15T10:42:31.757Z,99.60
2017-11-15T10:45:00.075Z,99.60
2017-11-15T10:47:27.766Z,99.20
2017-11-15T10:49:55.527Z,99.00
2017-11-15T10:52:23.120Z,98.60
2017-11-15T10:54:50.748Z,98.60
2017-11-15T10:57:18.431Z,98.60
2017-11-15T10:59:46.256Z,98.60
2017-11-15T11:02:13.896Z,98.30
2017-11-15T11:04:41.495Z,98.40
2017-11-15T11:07:09.107Z,98.50
2017-11-15T11:09:36.737Z,98.40
2017-11-15T11:12:05.166Z,98.20
2017-11-15T11:14:32.863Z,98.20
2017-11-15T11:17:00.595Z,98.30
2017-11-15T11:19:28.297Z,98.50
2017-11-15T11:21:55.926Z,98.80
2017-11-15T11:24:23.575Z,98.90
2017-11-15T11:26:51.285Z,98.90
2017-11-15T11:29:19.645Z,99.00
2017-11-15T11:31:47.276Z,99.00
2017-11-15T11:34:14.970Z,98.90
2017-11-15T11:36:43.074Z,99.20
2017-11-15T11:39:11.509Z,99.40
2017-11-15T11:41:39.120Z,99.40
2017-11-15T11:44:06.777Z,99.10
2017-11-15T11:46:35.154Z,99.00
2017-11-15T11:49:03.638Z,98.80
2017-11-15T11:51:32.035Z,98.80
2017-11-15T11:53:59.671Z,98.80
2017-11-15T11:56:27.660Z,98.90
2017-11-15T11:58:55.297Z,99.10
2017-11-15T12:01:23.817Z,99.10
2017-11-15T12:03:51.424Z,99.30
2017-11-15T12:06:19.051Z,99.00
2017-11-15T12:08:46.919Z,98.90
2017-11-15T12:11:14.614Z,98.80
2017-11-15T12:13:42.367Z,98.80
2017-11-15T12:16:10.996Z,98.70
2017-11-15T12:18:38.623Z,98.80
2017-11-15T12:21:06.794Z,98.70
2017-11-15T12:23:34.433Z,98.70
2017-11-15T12:26:03.246Z,98.60
2017-11-15T12:28:30.883Z,98.60
2017-11-15T12:30:58.664Z,98.50
2017-11-15T12:33:27.433Z,98.60
2017-11-15T12:35:55.147Z,98.80
2017-11-15T12:38:23.610Z,98.70
2017-11-15T12:40:51.242Z,98.70
2017-11-15T12:43:18.924Z,98.80
2017-11-15T12:45:46.673Z,98.90
2017-11-15T12:48:15.257Z,99.10
2017-11-15T12:50:42.941Z,99.10
2017-11-15T12:53:10.644Z,99.30
2017-11-15T12:55:38.289Z,99.40
2017-11-15T12:58:05.945Z,99.30
2017-11-15T13:00:33.624Z,99.30
2017-11-15T13:03:01.284Z,99.10
2017-11-15T13:05:28.879Z,99.10
2017-11-15T13:07:56.598Z,99.30
2017-11-15T13:10:24.249Z,99.30
2017-11-15T13:12:51.979Z,99.30
2017-11-15T13:15:19.689Z,99.90
2017-11-15T13:17:47.497Z,99.90
2017-11-15T13:20:15.155Z,99.90
2017-11-15T13:22:42.821Z,99.90
2017-11-15T13:25:10.504Z,99.90
2017-11-15T13:27:38.150Z,99.90
2017-11-15T13:30:06.538Z,99.90
2017-11-15T13:32:34.228Z,99.90
2017-11-15T13:35:01.836Z,99.90
2017-11-15T13:37:29.455Z,99.90
2017-11-15T13:39:57.882Z,99.90
2017-11-15T13:42:26.346Z,99.90
2017-11-15T13:44:54.462Z,99.90
2017-11-15T13:47:22.165Z,99.90
2017-11-15T13:49:49.880Z,99.90
2017-11-15T13:52:17.498Z,99.90
2017-11-15T13:54:45.118Z,99.90
2017-11-15T13:57:12.773Z,99.90
2017-11-15T13:59:40.470Z,99.90
2017-11-15T14:02:08.146Z,99.90
2017-11-15T14:04:36.570Z,99.90
2017-11-15T14:07:04.198Z,99.90
2017-11-15T14:09:31.851Z,99.90
2017-11-15T14:11:59.477Z,99.90
2017-11-15T14:14:27.100Z,99.90
2017-11-15T14:16:54.815Z,99.90
2017-11-15T14:19:22.451Z,99.90
2017-11-15T14:21:50.028Z,99.90
2017-11-15T14:24:17.705Z,99.90
2017-11-15T14:26:45.355Z,99.90
2017-11-15T14:29:13.082Z,99.90
2017-11-15T14:31:40.784Z,99.90
2017-11-15T14:34:08.463Z,99.90
2017-11-15T14:36:36.091Z,99.90
2017-11-15T14:39:03.739Z,99.90
2017-11-15T14:41:31.329Z,99.90
2017-11-15T14:43:58.941Z,99.90
2017-11-15T14:46:26.547Z,99.90
2017-11-15T14:48:54.221Z,99.90
2017-11-15T14:51:22.665Z,99.90
2017-11-15T14:53:50.314Z,99.90
2017-11-15T14:56:18.056Z,99.90
2017-11-15T14:58:45.724Z,99.90
2017-11-15T15:01:13.374Z,99.90
2017-11-15T15:03:41.760Z,99.90
2017-11-15T15:06:09.375Z,99.90
2017-11-15T15:08:37.017Z,99.90
2017-11-15T15:11:06.342Z,99.90
2017-11-15T15:13:34.938Z,99.90
2017-11-15T15:16:02.631Z,99.90
2017-11-15T15:18:30.584Z,99.90
2017-11-15T15:20:58.289Z,99.90
2017-11-15T15:23:25.951Z,99.90
2017-11-15T15:25:53.582Z,99.90
2017-11-15T15:28:21.171Z,99.90
2017-11-15T15:30:48.842Z,99.90
2017-11-15T15:33:16.489Z,99.90
2017-11-15T15:35:44.153Z,99.90
2017-11-15T15:38:11.818Z,99.90
2017-11-15T15:40:39.413Z,99.90
2017-11-15T15:43:07.082Z,99.90
2017-11-15T15:45:34.682Z,99.90
2017-11-15T15:48:02.271Z,99.90
2017-11-15T15:50:29.897Z,99.90
2017-11-15T15:52:57.566Z,99.90
2017-11-15T15:55:26.046Z,99.90
2017-11-15T15:57:54.444Z,99.90
2017-11-15T16:00:22.121Z,99.90
2017-11-15T16:02:49.792Z,99.90
2017-11-15T16:05:17.448Z,99.90
2017-11-15T16:07:45.093Z,99.90
2017-11-15T16:10:12.820Z,99.90
2017-11-15T16:12:41.393Z,99.90
2017-11-15T16:15:09.119Z,99.90
2017-11-15T16:17:36.784Z,99.90
2017-11-15T16:20:04.536Z,99.90
2017-11-15T16:22:32.808Z,99.90
2017-11-15T16:25:00.472Z,99.90
2017-11-15T16:27:28.985Z,99.90
2017-11-15T16:29:56.657Z,99.90
2017-11-15T16:32:25.349Z,99.90
2017-11-15T16:34:52.989Z,99.90
2017-11-15T16:37:20.695Z,99.90
2017-11-15T16:39:48.302Z,99.90
2017-11-15T16:42:15.980Z,99.90
2017-11-15T16:44:43.787Z,99.90
2017-11-15T16:47:11.425Z,99.90
2017-11-15T16:49:39.031Z,99.90
2017-11-15T16:52:06.684Z,99.90
2017-11-15T16:54:34.352Z,99.90
2017-11-15T16:57:01.994Z,99.90
2017-11-15T16:59:29.672Z,99.90
2017-11-15T17:01:57.284Z,99.90
2017-11-15T17:04:25.684Z,99.90
2017-11-15T17:06:53.318Z,99.90
2017-11-15T17:09:20.933Z,99.90
2017-11-15T17:11:48.608Z,99.90
2017-11-15T17:14:16.295Z,99.90
2017-11-15T17:16:43.904Z,99.90
2017-11-15T17:19:11.496Z,99.90
2017-11-15T17:21:39.180Z,99.90
2017-11-15T17:24:06.823Z,99.90
2017-11-15T17:26:34.487Z,99.90
2017-11-15T17:29:02.200Z,99.90
2017-11-15T17:31:29.824Z,99.90
2017-11-15T17:33:57.496Z,99.90
2017-11-15T17:36:25.119Z,99.90
2017-11-15T17:38:52.807Z,99.90
2017-11-15T17:41:22.203Z,99.90
2017-11-15T17:43:49.851Z,99.90
2017-11-15T17:46:17.620Z,99.90
2017-11-15T17:48:45.294Z,99.90
2017-11-15T17:51:12.976Z,99.90
2017-11-15T17:53:41.354Z,99.90
2017-11-15T17:56:09.033Z,99.90
2017-11-15T17:58:36.680Z,99.90
2017-11-15T18:01:05.106Z,99.90
2017-11-15T18:03:32.752Z,99.90
2017-11-15T18:06:00.480Z,99.90
2017-11-15T18:08:28.218Z,99.90
2017-11-15T18:10:56.645Z,99.90
2017-11-15T18:13:25.066Z,99.90
2017-11-15T18:15:52.729Z,99.90
2017-11-15T18:18:20.398Z,99.90
2017-11-15T18:20:48.066Z,99.90
2017-11-15T18:23:15.807Z,99.90
2017-11-15T18:25:43.420Z,99.90
2017-11-15T18:28:11.003Z,99.90
2017-11-15T18:30:38.671Z,99.90
2017-11-15T18:33:06.364Z,99.90
2017-11-15T18:35:34.045Z,99.90
2017-11-15T18:38:01.842Z,99.90
2017-11-15T18:40:29.576Z,99.90
2017-11-15T18:42:57.395Z,99.90
2017-11-15T18:45:25.047Z,99.90
2017-11-15T18:47:52.729Z,99.90
2017-11-15T18:50:20.426Z,99.90
2017-11-15T18:52:48.432Z,99.90
2017-11-15T18:55:16.125Z,99.90
2017-11-15T18:57:43.843Z,99.90
2017-11-15T19:00:12.277Z,99.90
2017-11-15T19:02:39.982Z,99.90
2017-11-15T19:05:07.615Z,99.90
2017-11-15T19:07:35.278Z,99.90
2017-11-15T19:10:02.919Z,99.90
2017-11-15T19:12:30.615Z,99.90
2017-11-15T19:14:58.326Z,99.90
2017-11-15T19:17:26.001Z,99.90
2017-11-15T19:19:53.882Z,99.90
2017-11-15T19:22:21.552Z,99.90
2017-11-15T19:24:49.944Z,99.90
2017-11-15T19:27:17.586Z,99.90
2017-11-15T19:29:45.200Z,99.90
2017-11-15T19:32:13.579Z,99.90
2017-11-15T19:34:41.248Z,99.90
2017-11-15T19:37:08.947Z,99.90
2017-11-15T19:39:36.616Z,99.90
2017-11-15T19:42:04.287Z,99.90
2017-11-15T19:44:31.915Z,99.90
2017-11-15T19:46:59.882Z,99.90
2017-11-15T19:49:27.536Z,99.90
2017-11-15T19:51:55.295Z,99.90
2017-11-15T19:54:23.812Z,99.90
2017-11-15T19:56:51.532Z,99.90
2017-11-15T19:59:19.146Z,99.90
2017-11-15T20:01:46.836Z,99.90
2017-11-15T20:04:14.686Z,99.90
2017-11-15T20:06:42.440Z,99.90
2017-11-15T20:09:10.113Z,99.90
2017-11-15T20:11:37.906Z,99.90
2017-11-15T20:14:06.293Z,99.90
2017-11-15T20:16:34.700Z,99.90
2017-11-15T20:19:02.409Z,99.90
2017-11-15T20:21:30.067Z,99.90
2017-11-15T20:23:57.665Z,99.90
2017-11-15T20:26:25.482Z,99.90
2017-11-15T20:28:53.103Z,99.90
2017-11-15T20:31:21.026Z,99.90
2017-11-15T20:33:48.677Z,99.90
2017-11-15T20:36:16.313Z,99.90
2017-11-15T20:38:43.960Z,99.90
2017-11-15T20:41:11.554Z,99.90
2017-11-15T20:43:39.183Z,99.90
2017-11-15T20:46:06.913Z,99.90
2017-11-15T20:48:35.294Z,99.90
2017-11-15T20:51:02.955Z,99.90
2017-11-15T20:53:31.426Z,99.90
2017-11-15T20:55:59.157Z,99.90
2017-11-15T20:58:26.939Z,99.90
2017-11-15T21:00:54.657Z,99.90
2017-11-15T21:03:22.297Z,99.90
2017-11-15T21:05:49.908Z,99.90
2017-11-15T21:08:17.700Z,99.90
2017-11-15T21:10:45.368Z,99.90
2017-11-15T21:13:13.795Z,99.90
2017-11-15T21:15:41.416Z,99.90
2017-11-15T21:18:09.836Z,99.90
2017-11-15T21:20:37.694Z,99.90
2017-11-15T21:23:05.363Z,99.90
2017-11-15T21:25:33.061Z,99.90
2017-11-15T21:28:00.756Z,99.90
2017-11-15T21:30:28.402Z,99.90
2017-11-15T21:32:56.793Z,99.90
2017-11-15T21:35:24.515Z,99.90
2017-11-15T21:37:52.202Z,99.90
2017-11-15T21:40:19.797Z,99.90
2017-11-15T21:42:48.177Z,99.90
2017-11-15T21:45:15.771Z,99.90
2017-11-15T21:47:43.451Z,99.90
2017-11-15T21:50:11.105Z,99.90
2017-11-15T21:52:38.733Z,99.90
2017-11-15T21:55:06.357Z,99.90
2017-11-15T21:57:33.979Z,99.90
2017-11-15T22:00:01.609Z,99.90
2017-11-15T22:02:29.201Z,99.90
2017-11-15T22:04:56.803Z,99.90
2017-11-15T22:07:24.462Z,99.90
2017-11-15T22:09:52.067Z,99.90
2017-11-15T22:12:19.680Z,99.90
2017-11-15T22:14:47.288Z,99.90
2017-11-15T22:17:14.937Z,99.90
2017-11-15T22:19:42.506Z,99.90
2017-11-15T22:22:10.192Z,99.90
2017-11-15T22:24:37.875Z,99.90
2017-11-15T22:27:05.494Z,99.90
2017-11-15T22:29:33.259Z,99.90
2017-11-15T22:32:00.845Z,99.90
2017-11-15T22:34:28.551Z,99.90
2017-11-15T22:36:56.926Z,99.90
2017-11-15T22:39:24.545Z,99.90
2017-11-15T22:41:52.196Z,99.90
2017-11-15T22:44:19.812Z,99.90
2017-11-15T22:46:48.316Z,99.90
2017-11-15T22:49:15.982Z,99.90
2017-11-15T22:51:43.585Z,99.90
2017-11-15T22:54:11.308Z,99.90
2017-11-15T22:56:39.689Z,99.90
2017-11-15T22:59:07.410Z,99.90
2017-11-15T23:01:35.099Z,99.90
2017-11-15T23:04:02.736Z,99.90
2017-11-15T23:06:30.343Z,99.90
2017-11-15T23:08:57.965Z,99.90
2017-11-15T23:11:25.592Z,99.90
2017-11-15T23:13:53.213Z,99.90
2017-11-15T23:16:20.806Z,99.90
2017-11-15T23:18:48.556Z,99.90
2017-11-15T23:21:16.933Z,99.90
2017-11-15T23:23:45.338Z,99.90
2017-11-15T23:26:13.082Z,99.90
2017-11-15T23:28:41.483Z,99.90
2017-11-15T23:31:09.199Z,99.90
2017-11-15T23:33:36.881Z,99.90
2017-11-15T23:36:04.490Z,99.90
2017-11-15T23:38:32.160Z,99.90
2017-11-15T23:41:00.474Z,99.90
2017-11-15T23:43:28.078Z,99.90
2017-11-15T23:45:55.733Z,99.90
2017-11-15T23:48:23.373Z,99.90
2017-11-15T23:50:51.814Z,99.90
2017-11-15T23:53:19.458Z,99.90
2017-11-15T23:55:47.071Z,99.90
2017-11-15T23:58:15.446Z,99.90
